Time;durP1;ratioP1;P1;durP2;ratioP2;P2;SDS_P1;SDS_P2;PMS_P1;PMS_P2;Temp;Humidity;BMP_temperature;BMP_pressure;BME280_temperature;BME280_humidity;BME280_pressure;Samples;Min_cycle;Max_cycle;Signal;HPM_P1;HPM_P2
2023/10/29 00:01:24;;;;;;;2.10;1.90;;;;;;;;;;5115884;28;20426;-81
2023/10/29 00:03:50;;;;;;;3.70;2.13;;;;;;;;;;5118468;28;20400;-81
2023/10/29 00:06:16;;;;;;;2.70;1.97;;;;;;;;;;5118674;28;20791;-80
2023/10/29 00:08:42;;;;;;;2.58;1.80;;;;;;;;;;5116495;28;20376;-80
2023/10/29 00:11:11;;;;;;;2.38;1.90;;;;;;;;;;5116146;28;20868;-81
2023/10/29 00:13:37;;;;;;;3.17;2.33;;;;;;;;;;5116260;28;20384;-81
2023/10/29 00:16:03;;;;;;;4.47;2.40;;;;;;;;;;5116056;28;20376;-81
2023/10/29 00:18:29;;;;;;;4.43;2.17;;;;;;;;;;5115867;28;20381;-81
2023/10/29 00:20:55;;;;;;;2.63;2.08;;;;;;;;;;5114211;28;20395;-81
2023/10/29 00:23:21;;;;;;;2.53;2.13;;;;;;;;;;5115992;28;20408;-80
2023/10/29 00:25:47;;;;;;;3.55;2.30;;;;;;;;;;5115839;28;20412;-80
2023/10/29 00:28:13;;;;;;;2.80;2.10;;;;;;;;;;5116794;28;20402;-80
2023/10/29 00:30:39;;;;;;;3.13;2.28;;;;;;;;;;5115595;28;20380;-80
2023/10/29 00:33:06;;;;;;;2.80;2.17;;;;;;;;;;5116129;28;20395;-80
2023/10/29 00:35:32;;;;;;;2.72;2.20;;;;;;;;;;5101267;28;20390;-80
2023/10/29 00:37:58;;;;;;;3.88;2.35;;;;;;;;;;5110248;28;20385;-80
2023/10/29 00:40:25;;;;;;;2.70;2.17;;;;;;;;;;5101501;28;20386;-81
2023/10/29 00:42:51;;;;;;;2.85;2.20;;;;;;;;;;5115412;28;20392;-81
2023/10/29 00:45:17;;;;;;;2.35;2.15;;;;;;;;;;5115642;28;20415;-81
2023/10/29 00:47:43;;;;;;;2.65;2.25;;;;;;;;;;5095588;28;20456;-81
2023/10/29 00:50:09;;;;;;;2.70;2.17;;;;;;;;;;5095024;28;20386;-81
2023/10/29 00:52:36;;;;;;;2.20;1.95;;;;;;;;;;5099127;28;20401;-81
2023/10/29 00:55:02;;;;;;;2.45;2.00;;;;;;;;;;5109297;28;20376;-81
2023/10/29 00:57:29;;;;;;;2.10;1.90;;;;;;;;;;5115754;28;20384;-81
2023/10/29 00:59:55;;;;;;;2.53;1.90;;;;;;;;;;5115537;28;20384;-81
2023/10/29 01:02:21;;;;;;;4.72;1.90;;;;;;;;;;5115316;28;20433;-81
2023/10/29 01:04:47;;;;;;;2.95;1.95;;;;;;;;;;5115076;28;20416;-81
2023/10/29 01:07:13;;;;;;;4.15;1.83;;;;;;;;;;5114907;28;20381;-81
2023/10/29 01:09:42;;;;;;;2.47;2.00;;;;;;;;;;5114987;28;20801;-81
2023/10/29 01:12:15;;;;;;;2.10;1.90;;;;;;;;;;5115071;28;20725;-81
2023/10/29 01:14:41;;;;;;;2.22;1.58;;;;;;;;;;5114961;28;20892;-81
2023/10/29 01:17:07;;;;;;;2.65;1.80;;;;;;;;;;5097004;28;20423;-81
2023/10/29 01:19:33;;;;;;;2.00;1.80;;;;;;;;;;5114211;28;20414;-81
2023/10/29 01:21:59;;;;;;;2.45;1.98;;;;;;;;;;5114578;28;20384;-81
2023/10/29 01:24:26;;;;;;;3.17;1.80;;;;;;;;;;5114682;28;20503;-81
2023/10/29 01:26:53;;;;;;;2.90;1.70;;;;;;;;;;5115302;28;20383;-81
2023/10/29 01:29:19;;;;;;;3.03;1.90;;;;;;;;;;5114910;28;20443;-81
2023/10/29 01:31:48;;;;;;;2.25;1.73;;;;;;;;;;5115510;28;20433;-80
2023/10/29 01:34:15;;;;;;;1.92;1.50;;;;;;;;;;5115667;28;20379;-80
2023/10/29 01:36:41;;;;;;;2.22;1.50;;;;;;;;;;5116029;28;20414;-80
2023/10/29 01:39:07;;;;;;;2.83;1.60;;;;;;;;;;5115451;28;20411;-80
2023/10/29 01:41:33;;;;;;;1.95;1.67;;;;;;;;;;5105433;28;20390;-80
2023/10/29 01:43:59;;;;;;;2.40;1.70;;;;;;;;;;5104768;28;20442;-81
2023/10/29 01:46:25;;;;;;;2.58;1.63;;;;;;;;;;5100955;28;20401;-80
2023/10/29 01:48:51;;;;;;;3.47;1.60;;;;;;;;;;5109648;28;20413;-80
2023/10/29 01:51:17;;;;;;;2.13;1.50;;;;;;;;;;5108983;28;20399;-81
2023/10/29 01:53:43;;;;;;;2.97;1.90;;;;;;;;;;5119401;28;20372;-81
2023/10/29 01:56:10;;;;;;;4.65;2.28;;;;;;;;;;5116496;28;20471;-80
2023/10/29 01:58:36;;;;;;;2.78;1.90;;;;;;;;;;5119435;28;20384;-81
2023/10/29 02:01:02;;;;;;;2.58;1.85;;;;;;;;;;5119274;28;20974;-81
2023/10/29 02:03:28;;;;;;;2.53;2.10;;;;;;;;;;5120392;28;20416;-80
2023/10/29 02:05:54;;;;;;;2.33;1.95;;;;;;;;;;5119326;28;20380;-80
2023/10/29 02:08:20;;;;;;;2.45;1.83;;;;;;;;;;5118249;28;20729;-81
2023/10/29 02:10:46;;;;;;;3.30;1.90;;;;;;;;;;5117507;28;20384;-80
2023/10/29 02:13:14;;;;;;;1.75;1.65;;;;;;;;;;5118718;28;20703;-80
2023/10/29 02:15:40;;;;;;;2.03;1.75;;;;;;;;;;5119681;28;20369;-80
2023/10/29 02:18:06;;;;;;;2.15;1.50;;;;;;;;;;5119158;28;20437;-81
2023/10/29 02:20:32;;;;;;;2.58;1.70;;;;;;;;;;5118936;28;20916;-80
2023/10/29 02:22:58;;;;;;;2.20;1.80;;;;;;;;;;5119535;28;20384;-81
2023/10/29 02:25:24;;;;;;;2.35;2.05;;;;;;;;;;5118864;28;20404;-80
2023/10/29 02:27:50;;;;;;;2.50;1.73;;;;;;;;;;5117731;28;20399;-79
2023/10/29 02:30:16;;;;;;;3.70;1.90;;;;;;;;;;5108569;28;20397;-80
2023/10/29 02:32:42;;;;;;;3.45;1.90;;;;;;;;;;5117494;28;20372;-80
2023/10/29 02:35:08;;;;;;;3.00;2.35;;;;;;;;;;5125536;28;20391;-80
2023/10/29 02:37:34;;;;;;;2.58;2.13;;;;;;;;;;5131747;28;20375;-80
2023/10/29 02:40:00;;;;;;;3.83;2.30;;;;;;;;;;5127050;28;20877;-80
2023/10/29 02:42:26;;;;;;;2.83;2.22;;;;;;;;;;5129427;28;20371;-80
2023/10/29 02:44:52;;;;;;;2.80;1.90;;;;;;;;;;5121303;28;20504;-79
2023/10/29 02:47:18;;;;;;;4.20;2.42;;;;;;;;;;5119669;28;20521;-79
2023/10/29 02:49:44;;;;;;;3.47;1.90;;;;;;;;;;5106238;28;20420;-79
2023/10/29 02:52:10;;;;;;;2.33;2.00;;;;;;;;;;5117179;28;20858;-79
2023/10/29 02:54:39;;;;;;;2.30;2.10;;;;;;;;;;5118639;28;20399;-80
2023/10/29 02:57:05;;;;;;;1.95;1.63;;;;;;;;;;5113296;28;20376;-78
2023/10/29 02:59:31;;;;;;;2.33;2.00;;;;;;;;;;5119431;28;20445;-79
2023/10/29 03:01:57;;;;;;;3.25;1.83;;;;;;;;;;5118694;28;20408;-78
2023/10/29 03:04:23;;;;;;;2.22;1.70;;;;;;;;;;5119354;28;20404;-79
2023/10/29 03:06:49;;;;;;;2.60;1.70;;;;;;;;;;5116606;28;20380;-80
2023/10/29 03:09:15;;;;;;;2.30;1.63;;;;;;;;;;5119557;28;20380;-79
2023/10/29 03:11:41;;;;;;;2.65;2.00;;;;;;;;;;5118353;28;20380;-80
2023/10/29 03:14:07;;;;;;;1.80;1.53;;;;;;;;;;5105432;28;20405;-80
2023/10/29 03:16:33;;;;;;;3.25;1.52;;;;;;;;;;5104571;28;20372;-80
2023/10/29 03:18:59;;;;;;;1.52;1.23;;;;;;;;;;5119116;28;20471;-80
2023/10/29 03:21:26;;;;;;;1.95;1.40;;;;;;;;;;5104456;28;20407;-80
2023/10/29 03:23:52;;;;;;;1.50;1.40;;;;;;;;;;5117843;28;20415;-80
2023/10/29 03:26:18;;;;;;;2.22;1.58;;;;;;;;;;5119469;28;20411;-80
2023/10/29 03:28:44;;;;;;;1.38;1.20;;;;;;;;;;5104687;28;20855;-80
2023/10/29 03:31:11;;;;;;;3.17;1.77;;;;;;;;;;5099640;28;20374;-80
2023/10/29 03:33:37;;;;;;;2.10;1.30;;;;;;;;;;5113373;28;20377;-80
2023/10/29 03:36:06;;;;;;;2.50;1.40;;;;;;;;;;5120555;28;20444;-80
2023/10/29 03:38:32;;;;;;;2.13;1.58;;;;;;;;;;5120529;28;20821;-80
2023/10/29 03:40:58;;;;;;;5.28;1.40;;;;;;;;;;5119871;28;20384;-80
2023/10/29 03:43:24;;;;;;;3.37;1.33;;;;;;;;;;5119154;28;20437;-80
2023/10/29 03:45:50;;;;;;;3.20;1.38;;;;;;;;;;5109158;28;20391;-78
2023/10/29 03:48:16;;;;;;;1.33;1.10;;;;;;;;;;5093494;28;20378;-78
2023/10/29 03:50:42;;;;;;;2.60;1.40;;;;;;;;;;5101319;28;20388;-80
2023/10/29 03:53:08;;;;;;;2.22;1.27;;;;;;;;;;5119720;28;20479;-80
2023/10/29 03:55:38;;;;;;;1.65;1.40;;;;;;;;;;5119488;28;20419;-80
2023/10/29 03:58:04;;;;;;;2.72;1.77;;;;;;;;;;5111165;28;20834;-80
2023/10/29 04:00:30;;;;;;;1.92;1.50;;;;;;;;;;5099516;28;20378;-80
2023/10/29 04:02:56;;;;;;;2.03;1.60;;;;;;;;;;5105243;28;20372;-80
2023/10/29 04:05:23;;;;;;;1.77;1.50;;;;;;;;;;5115665;28;20418;-80
2023/10/29 04:07:49;;;;;;;2.42;1.40;;;;;;;;;;5115291;28;20377;-80
2023/10/29 04:10:15;;;;;;;2.70;1.88;;;;;;;;;;5098894;28;20859;-80
2023/10/29 04:12:41;;;;;;;1.50;1.40;;;;;;;;;;5115050;28;20849;-80
2023/10/29 04:15:08;;;;;;;2.60;1.50;;;;;;;;;;5110238;28;20404;-80
2023/10/29 04:17:34;;;;;;;3.88;1.88;;;;;;;;;;5112260;28;20384;-80
2023/10/29 04:20:00;;;;;;;2.60;1.92;;;;;;;;;;5105655;28;20398;-80
2023/10/29 04:22:27;;;;;;;2.60;1.52;;;;;;;;;;5118988;28;20372;-80
2023/10/29 04:24:53;;;;;;;2.70;1.75;;;;;;;;;;5105924;28;20503;-80
2023/10/29 04:27:19;;;;;;;1.90;1.50;;;;;;;;;;5108942;28;20397;-80
2023/10/29 04:29:45;;;;;;;2.77;1.87;;;;;;;;;;5104718;28;20411;-80
2023/10/29 04:32:12;;;;;;;1.73;1.35;;;;;;;;;;5119366;28;20372;-80
2023/10/29 04:34:38;;;;;;;1.77;1.63;;;;;;;;;;5118952;28;20406;-80
2023/10/29 04:37:04;;;;;;;4.22;1.77;;;;;;;;;;5115958;28;20384;-80
2023/10/29 04:39:30;;;;;;;2.58;1.63;;;;;;;;;;5107746;28;20995;-80
2023/10/29 04:41:56;;;;;;;2.90;1.60;;;;;;;;;;5117712;28;20381;-80
2023/10/29 04:44:22;;;;;;;3.05;1.80;;;;;;;;;;5118214;28;20471;-80
2023/10/29 04:46:48;;;;;;;2.40;2.10;;;;;;;;;;5104689;28;20475;-80
2023/10/29 04:49:14;;;;;;;2.30;2.10;;;;;;;;;;5117116;28;20380;-80
2023/10/29 04:51:40;;;;;;;3.17;1.35;;;;;;;;;;5118748;28;20748;-80
2023/10/29 04:54:07;;;;;;;2.97;1.80;;;;;;;;;;5115340;28;20465;-80
2023/10/29 04:56:33;;;;;;;1.80;1.60;;;;;;;;;;5108028;28;20387;-80
2023/10/29 04:58:59;;;;;;;2.33;1.57;;;;;;;;;;5117934;28;20771;-80
2023/10/29 05:01:25;;;;;;;1.60;1.50;;;;;;;;;;5118117;28;20380;-80
2023/10/29 05:03:51;;;;;;;1.83;1.70;;;;;;;;;;5118142;28;20412;-80
2023/10/29 05:06:21;;;;;;;2.17;1.65;;;;;;;;;;5103399;28;20476;-80
2023/10/29 05:08:47;;;;;;;3.05;2.05;;;;;;;;;;5102316;28;20409;-78
2023/10/29 05:11:13;;;;;;;2.80;2.38;;;;;;;;;;5109479;28;20382;-80
2023/10/29 05:13:40;;;;;;;3.92;2.75;;;;;;;;;;5108411;28;20428;-80
2023/10/29 05:16:07;;;;;;;5.05;3.50;;;;;;;;;;5100801;28;20389;-80
2023/10/29 05:18:33;;;;;;;3.25;2.92;;;;;;;;;;5106869;28;20387;-80
2023/10/29 05:20:59;;;;;;;2.30;1.83;;;;;;;;;;5116917;28;20387;-80
2023/10/29 05:23:26;;;;;;;4.00;2.50;;;;;;;;;;5103300;28;20404;-80
2023/10/29 05:25:53;;;;;;;2.95;2.10;;;;;;;;;;5110724;28;20411;-80
2023/10/29 05:28:19;;;;;;;3.35;1.48;;;;;;;;;;5121083;28;20424;-80
2023/10/29 05:30:44;;;;;;;2.20;1.27;;;;;;;;;;5121552;28;20392;-80
2023/10/29 05:33:11;;;;;;;1.60;1.42;;;;;;;;;;5120703;28;20380;-80
2023/10/29 05:35:37;;;;;;;3.13;1.75;;;;;;;;;;5120338;28;20387;-80
2023/10/29 05:38:03;;;;;;;2.33;1.70;;;;;;;;;;5109319;28;20374;-80
2023/10/29 05:40:29;;;;;;;2.95;1.98;;;;;;;;;;5117684;28;20784;-80
2023/10/29 05:42:55;;;;;;;3.60;2.30;;;;;;;;;;5121114;28;20376;-80
2023/10/29 05:45:21;;;;;;;2.22;1.75;;;;;;;;;;5099627;28;20413;-80
2023/10/29 05:47:47;;;;;;;1.80;1.60;;;;;;;;;;5119681;28;20929;-80
2023/10/29 05:50:13;;;;;;;2.63;1.60;;;;;;;;;;5120266;28;20422;-80
2023/10/29 05:52:39;;;;;;;3.08;1.80;;;;;;;;;;5119752;28;20388;-80
2023/10/29 05:55:05;;;;;;;2.60;1.95;;;;;;;;;;5119748;28;20384;-80
2023/10/29 05:57:31;;;;;;;1.73;1.63;;;;;;;;;;5119789;28;20375;-80
2023/10/29 05:59:57;;;;;;;2.97;1.90;;;;;;;;;;5120307;28;20380;-80
2023/10/29 06:02:24;;;;;;;2.28;1.75;;;;;;;;;;5121903;28;20698;-80
2023/10/29 06:04:50;;;;;;;2.50;1.50;;;;;;;;;;5092229;28;20408;-80
2023/10/29 06:07:16;;;;;;;2.50;1.80;;;;;;;;;;5115979;28;20436;-80
2023/10/29 06:09:42;;;;;;;3.53;1.90;;;;;;;;;;5095225;28;20467;-80
2023/10/29 06:12:09;;;;;;;2.60;2.30;;;;;;;;;;5107284;28;20895;-80
2023/10/29 06:14:35;;;;;;;2.20;1.90;;;;;;;;;;5115551;28;20387;-80
2023/10/29 06:17:01;;;;;;;3.35;2.10;;;;;;;;;;5115838;28;20384;-80
2023/10/29 06:19:27;;;;;;;2.13;1.92;;;;;;;;;;5116226;28;20377;-80
2023/10/29 06:21:53;;;;;;;2.08;1.80;;;;;;;;;;5115943;28;20918;-80
2023/10/29 06:24:19;;;;;;;1.93;1.73;;;;;;;;;;5106798;28;20417;-80
2023/10/29 06:26:45;;;;;;;2.42;1.88;;;;;;;;;;5112223;28;20376;-80
2023/10/29 06:29:11;;;;;;;1.98;1.60;;;;;;;;;;5105116;28;20385;-80
2023/10/29 06:31:37;;;;;;;2.77;1.67;;;;;;;;;;5100558;28;20373;-80
2023/10/29 06:34:03;;;;;;;2.70;1.80;;;;;;;;;;5116915;28;20388;-80
2023/10/29 06:36:29;;;;;;;2.05;1.50;;;;;;;;;;5116181;28;20376;-80
2023/10/29 06:38:55;;;;;;;2.63;1.65;;;;;;;;;;5101688;28;20429;-80
2023/10/29 06:41:21;;;;;;;2.85;1.98;;;;;;;;;;5117185;28;20392;-80
2023/10/29 06:43:48;;;;;;;3.60;1.70;;;;;;;;;;5100092;28;20425;-80
2023/10/29 06:46:15;;;;;;;2.30;2.08;;;;;;;;;;5095662;28;20402;-80
2023/10/29 06:48:41;;;;;;;3.20;2.03;;;;;;;;;;5110238;28;20453;-80
2023/10/29 06:51:11;;;;;;;2.47;1.83;;;;;;;;;;5116594;28;20376;-80
2023/10/29 06:53:40;;;;;;;3.90;2.13;;;;;;;;;;5116977;28;20411;-80
2023/10/29 06:56:06;;;;;;;2.72;1.80;;;;;;;;;;5096757;28;20417;-80
2023/10/29 06:58:33;;;;;;;1.90;1.70;;;;;;;;;;5097923;28;20370;-80
2023/10/29 07:01:09;;;;;;;1.80;1.52;;;;;;;;;;5116311;28;20492;-80
2023/10/29 07:03:35;;;;;;;2.00;1.80;;;;;;;;;;5117212;28;20443;-80
2023/10/29 07:06:08;;;;;;;1.98;1.60;;;;;;;;;;5100033;28;20385;-80
2023/10/29 07:08:35;;;;;;;2.47;1.85;;;;;;;;;;5096843;28;20408;-80
2023/10/29 07:11:01;;;;;;;2.42;1.70;;;;;;;;;;5114071;28;20376;-80
2023/10/29 07:13:27;;;;;;;2.55;1.73;;;;;;;;;;5117866;28;20376;-80
2023/10/29 07:15:54;;;;;;;1.77;1.65;;;;;;;;;;5118575;28;20849;-80
2023/10/29 07:18:20;;;;;;;2.92;1.80;;;;;;;;;;5097157;28;20390;-80
2023/10/29 07:20:46;;;;;;;2.85;2.63;;;;;;;;;;5098309;28;20425;-80
2023/10/29 07:23:13;;;;;;;3.22;2.30;;;;;;;;;;5111709;28;20385;-80
2023/10/29 07:25:39;;;;;;;2.33;2.13;;;;;;;;;;5108201;28;20423;-80
2023/10/29 07:28:05;;;;;;;2.80;2.00;;;;;;;;;;5117701;28;20381;-80
2023/10/29 07:30:34;;;;;;;3.07;2.20;;;;;;;;;;5114846;28;20410;-78
2023/10/29 07:33:02;;;;;;;2.63;1.90;;;;;;;;;;5093260;28;20422;-79
2023/10/29 07:35:28;;;;;;;2.85;1.80;;;;;;;;;;5086910;28;20397;-78
2023/10/29 07:37:54;;;;;;;1.75;1.63;;;;;;;;;;5118111;28;20381;-81
2023/10/29 07:40:21;;;;;;;2.92;1.90;;;;;;;;;;5118640;28;20729;-81
2023/10/29 07:42:46;;;;;;;1.60;1.50;;;;;;;;;;5118467;28;20420;-81
2023/10/29 07:45:12;;;;;;;2.17;1.80;;;;;;;;;;5096288;28;20774;-81
2023/10/29 07:47:38;;;;;;;2.30;1.77;;;;;;;;;;5103928;28;20451;-81
2023/10/29 07:50:06;;;;;;;2.60;2.23;;;;;;;;;;5115687;28;20475;-81
2023/10/29 07:52:39;;;;;;;2.10;1.90;;;;;;;;;;5117199;28;20372;-81
2023/10/29 07:55:05;;;;;;;2.88;1.88;;;;;;;;;;5116902;28;20448;-81
2023/10/29 07:57:31;;;;;;;2.13;1.77;;;;;;;;;;5117946;28;20384;-81
2023/10/29 07:59:57;;;;;;;2.40;1.92;;;;;;;;;;5118527;28;20459;-80
2023/10/29 08:02:23;;;;;;;2.53;2.10;;;;;;;;;;5118250;28;20384;-82
2023/10/29 08:04:49;;;;;;;2.40;2.20;;;;;;;;;;5117671;28;20968;-81
2023/10/29 08:07:15;;;;;;;3.55;2.60;;;;;;;;;;5118210;28;20418;-81
2023/10/29 08:09:41;;;;;;;5.45;4.93;;;;;;;;;;5117450;28;20720;-81
2023/10/29 08:12:08;;;;;;;3.77;3.47;;;;;;;;;;5117657;28;20376;-81
2023/10/29 08:14:34;;;;;;;4.80;4.30;;;;;;;;;;5117580;28;20722;-81
2023/10/29 08:17:00;;;;;;;4.43;4.03;;;;;;;;;;5107769;28;20377;-81
2023/10/29 08:19:27;;;;;;;4.65;4.25;;;;;;;;;;5099372;28;20366;-82
2023/10/29 08:21:53;;;;;;;5.03;3.40;;;;;;;;;;5099840;28;20377;-81
2023/10/29 08:24:19;;;;;;;2.88;2.58;;;;;;;;;;5108116;28;20418;-78
2023/10/29 08:26:45;;;;;;;2.38;2.10;;;;;;;;;;5100468;28;20380;-80
2023/10/29 08:29:14;;;;;;;3.22;2.50;;;;;;;;;;5109502;28;20442;-80
2023/10/29 08:31:40;;;;;;;3.73;2.50;;;;;;;;;;5112130;28;20404;-80
2023/10/29 08:34:06;;;;;;;2.63;2.28;;;;;;;;;;5112992;28;20456;-80
2023/10/29 08:36:32;;;;;;;2.85;2.50;;;;;;;;;;5109083;28;20376;-81
2023/10/29 08:38:58;;;;;;;2.70;2.50;;;;;;;;;;5102464;28;20731;-81
2023/10/29 08:41:27;;;;;;;4.40;3.15;;;;;;;;;;5117330;28;20387;-81
2023/10/29 08:43:53;;;;;;;3.40;3.10;;;;;;;;;;5116235;28;20408;-81
2023/10/29 08:46:19;;;;;;;2.92;2.63;;;;;;;;;;5116863;28;20407;-81
2023/10/29 08:48:45;;;;;;;4.00;2.85;;;;;;;;;;5117289;28;20380;-80
2023/10/29 08:51:14;;;;;;;3.30;2.30;;;;;;;;;;5117074;28;20403;-81
2023/10/29 08:53:40;;;;;;;3.25;2.60;;;;;;;;;;5115388;28;20386;-80
2023/10/29 08:56:07;;;;;;;3.57;2.60;;;;;;;;;;5115498;28;20424;-79
2023/10/29 08:58:33;;;;;;;2.78;2.42;;;;;;;;;;5109564;28;20373;-80
2023/10/29 09:00:59;;;;;;;2.40;2.17;;;;;;;;;;5097453;28;20499;-80
2023/10/29 09:03:25;;;;;;;2.55;2.35;;;;;;;;;;5098358;28;20388;-80
2023/10/29 09:05:51;;;;;;;2.45;2.25;;;;;;;;;;5116645;28;20376;-80
2023/10/29 09:08:17;;;;;;;2.42;2.22;;;;;;;;;;5120345;28;20372;-80
2023/10/29 09:10:45;;;;;;;2.50;2.27;;;;;;;;;;5119952;28;20832;-80
2023/10/29 09:13:11;;;;;;;2.80;2.60;;;;;;;;;;5108566;28;20500;-80
2023/10/29 09:15:37;;;;;;;2.92;2.60;;;;;;;;;;5118437;28;20380;-79
2023/10/29 09:18:03;;;;;;;3.83;2.23;;;;;;;;;;5116842;28;20380;-79
2023/10/29 09:20:29;;;;;;;2.95;2.20;;;;;;;;;;5104552;28;20746;-79
2023/10/29 09:22:55;;;;;;;3.50;2.78;;;;;;;;;;5117800;28;20374;-79
2023/10/29 09:25:21;;;;;;;4.00;2.42;;;;;;;;;;5117922;28;20972;-79
2023/10/29 09:27:47;;;;;;;2.65;2.38;;;;;;;;;;5119008;28;20379;-79
2023/10/29 09:30:13;;;;;;;3.67;2.58;;;;;;;;;;5119206;28;20384;-79
2023/10/29 09:32:39;;;;;;;2.67;2.37;;;;;;;;;;5118966;28;20456;-79
2023/10/29 09:35:05;;;;;;;2.90;2.40;;;;;;;;;;5117172;28;20376;-79
2023/10/29 09:37:33;;;;;;;3.05;2.58;;;;;;;;;;5117920;28;20725;-79
2023/10/29 09:39:59;;;;;;;3.70;2.92;;;;;;;;;;5118561;28;20775;-80
2023/10/29 09:42:29;;;;;;;3.08;2.65;;;;;;;;;;5118455;28;20418;-79
2023/10/29 09:44:58;;;;;;;4.30;2.70;;;;;;;;;;5116933;28;20438;-79
2023/10/29 09:47:26;;;;;;;3.87;2.90;;;;;;;;;;5114000;28;20399;-79
2023/10/29 09:49:53;;;;;;;3.83;3.10;;;;;;;;;;5117635;28;20387;-79
2023/10/29 09:52:19;;;;;;;3.88;3.22;;;;;;;;;;5118114;28;20925;-79
2023/10/29 09:54:46;;;;;;;3.40;3.10;;;;;;;;;;5117590;28;20380;-79
2023/10/29 09:57:12;;;;;;;3.13;2.83;;;;;;;;;;5117440;28;20380;-79
2023/10/29 09:59:38;;;;;;;3.55;3.10;;;;;;;;;;5098581;28;20456;-79
2023/10/29 10:02:05;;;;;;;2.97;2.70;;;;;;;;;;5117290;28;20388;-80
2023/10/29 10:04:31;;;;;;;3.38;3.08;;;;;;;;;;5117920;28;20420;-80
2023/10/29 10:06:59;;;;;;;3.20;2.80;;;;;;;;;;5113448;28;20457;-79
2023/10/29 10:09:25;;;;;;;3.30;3.00;;;;;;;;;;5117630;28;20383;-80
2023/10/29 10:12:11;;;;;;;3.28;2.88;;;;;;;;;;5116317;28;20832;-79
2023/10/29 10:14:38;;;;;;;3.25;2.47;;;;;;;;;;5117088;28;20380;-79
2023/10/29 10:17:13;;;;;;;2.78;2.20;;;;;;;;;;5117365;28;20380;-79
2023/10/29 10:19:41;;;;;;;2.95;2.65;;;;;;;;;;5117057;28;20376;-79
2023/10/29 10:22:08;;;;;;;4.80;2.95;;;;;;;;;;5110672;28;20435;-78
2023/10/29 10:24:43;;;;;;;3.63;3.33;;;;;;;;;;5112427;28;20412;-79
2023/10/29 10:27:11;;;;;;;4.30;3.88;;;;;;;;;;5116556;28;20749;-79
2023/10/29 10:29:37;;;;;;;5.70;4.63;;;;;;;;;;5116187;28;20467;-79
2023/10/29 10:32:04;;;;;;;5.13;4.50;;;;;;;;;;5115940;28;20384;-80
2023/10/29 10:34:34;;;;;;;5.57;5.00;;;;;;;;;;5116885;28;20479;-81
2023/10/29 10:37:04;;;;;;;5.25;4.70;;;;;;;;;;5116906;28;20841;-80
2023/10/29 10:39:31;;;;;;;4.70;4.30;;;;;;;;;;5115396;28;20439;-79
2023/10/29 10:42:00;;;;;;;11.82;10.73;;;;;;;;;;5114845;28;20518;-80
2023/10/29 10:44:27;;;;;;;6.65;5.70;;;;;;;;;;5117739;28;20412;-80
2023/10/29 10:46:58;;;;;;;6.65;5.93;;;;;;;;;;5118602;28;21000;-79
2023/10/29 10:49:24;;;;;;;7.38;6.68;;;;;;;;;;5086586;22;20429;-83
2023/10/29 10:51:54;;;;;;;8.43;6.93;;;;;;;;;;5061197;28;20391;-83
2023/10/29 10:54:20;;;;;;;7.90;7.07;;;;;;;;;;5073430;28;20387;-82
2023/10/29 10:56:47;;;;;;;7.80;7.10;;;;;;;;;;5075064;28;20392;-82
2023/10/29 10:59:13;;;;;;;7.85;7.10;;;;;;;;;;5060408;28;20728;-82
2023/10/29 11:01:40;;;;;;;8.15;7.35;;;;;;;;;;5075238;28;20386;-83
2023/10/29 11:04:08;;;;;;;7.38;6.68;;;;;;;;;;5075431;28;20412;-83
2023/10/29 11:06:35;;;;;;;7.55;6.85;;;;;;;;;;5075410;28;20418;-83
2023/10/29 11:09:01;;;;;;;7.18;6.47;;;;;;;;;;5074858;28;20371;-83
2023/10/29 11:11:38;;;;;;;6.90;6.30;;;;;;;;;;5075746;28;20489;-83
2023/10/29 11:14:08;;;;;;;7.15;6.45;;;;;;;;;;5075869;28;20395;-83
2023/10/29 11:16:44;;;;;;;7.10;6.40;;;;;;;;;;5076042;28;20384;-83
2023/10/29 11:19:29;;;;;;;7.30;5.50;;;;;;;;;;5073585;28;20372;-83
2023/10/29 11:22:14;;;;;;;6.50;3.75;;;;;;;;;;5073052;28;20391;-83
2023/10/29 11:24:40;;;;;;;4.70;4.20;;;;;;;;;;5072216;28;20579;-83
2023/10/29 11:27:25;;;;;;;4.68;3.83;;;;;;;;;;5072735;28;20403;-83
2023/10/29 11:29:51;;;;;;;6.10;3.40;;;;;;;;;;5073298;28;20800;-83
2023/10/29 11:32:26;;;;;;;4.78;3.42;;;;;;;;;;5073448;28;20465;-83
2023/10/29 11:35:11;;;;;;;3.53;3.22;;;;;;;;;;5075984;28;20376;-82
2023/10/29 11:37:40;;;;;;;3.63;3.20;;;;;;;;;;5062152;28;20387;-83
2023/10/29 11:40:24;;;;;;;4.67;3.30;;;;;;;;;;5075215;28;20375;-83
2023/10/29 11:42:51;;;;;;;4.10;3.63;;;;;;;;;;5063207;28;20376;-83
2023/10/29 11:45:29;;;;;;;5.32;3.88;;;;;;;;;;5075760;28;20993;-83
2023/10/29 11:48:25;;;;;;;5.33;4.30;;;;;;;;;;5062649;28;20372;-83
2023/10/29 11:51:05;;;;;;;4.68;4.10;;;;;;;;;;5074841;28;20372;-83
2023/10/29 11:53:31;;;;;;;4.55;4.15;;;;;;;;;;5074971;28;20857;-83
2023/10/29 11:56:04;;;;;;;4.90;4.35;;;;;;;;;;5074852;28;20705;-83
2023/10/29 11:58:30;;;;;;;4.70;4.18;;;;;;;;;;5074671;28;20387;-83
2023/10/29 12:00:57;;;;;;;4.30;3.90;;;;;;;;;;5075462;28;20868;-83
2023/10/29 12:03:23;;;;;;;6.38;3.90;;;;;;;;;;5073384;28;20391;-83
2023/10/29 12:05:55;;;;;;;5.57;3.88;;;;;;;;;;5075125;28;20753;-83
2023/10/29 12:08:22;;;;;;;4.35;3.92;;;;;;;;;;5061889;28;20709;-83
2023/10/29 12:10:52;;;;;;;5.10;3.60;;;;;;;;;;5075323;28;20725;-83
2023/10/29 12:13:18;;;;;;;3.93;3.10;;;;;;;;;;5051785;28;20540;-83
2023/10/29 12:15:48;;;;;;;3.95;3.10;;;;;;;;;;5066408;28;20403;-83
2023/10/29 12:18:21;;;;;;;3.25;2.92;;;;;;;;;;5070454;28;20865;-83
2023/10/29 12:20:47;;;;;;;4.80;4.32;;;;;;;;;;5075357;28;20388;-83
2023/10/29 12:23:13;;;;;;;4.85;3.90;;;;;;;;;;5074892;28;20722;-83
2023/10/29 12:25:39;;;;;;;4.90;4.40;;;;;;;;;;5075032;28;20416;-83
2023/10/29 12:28:06;;;;;;;4.60;4.20;;;;;;;;;;5075575;28;20387;-83
2023/10/29 12:30:40;;;;;;;5.78;4.60;;;;;;;;;;5075265;28;20379;-84
2023/10/29 12:33:19;;;;;;;4.40;4.00;;;;;;;;;;5075588;28;20729;-83
2023/10/29 12:35:47;;;;;;;4.60;3.90;;;;;;;;;;5074978;28;20403;-83
2023/10/29 12:38:13;;;;;;;4.22;3.80;;;;;;;;;;5074555;28;20443;-83
2023/10/29 12:40:59;;;;;;;5.03;3.58;;;;;;;;;;5075128;28;20387;-83
2023/10/29 12:43:44;;;;;;;4.50;3.03;;;;;;;;;;5074968;28;20392;-83
2023/10/29 12:46:12;;;;;;;3.00;2.70;;;;;;;;;;5036642;28;20724;-83
2023/10/29 12:48:57;;;;;;;2.78;2.47;;;;;;;;;;5054472;28;20389;-83
2023/10/29 12:51:24;;;;;;;3.33;2.40;;;;;;;;;;5055289;28;20382;-83
2023/10/29 12:53:50;;;;;;;3.07;2.20;;;;;;;;;;5054155;28;20486;-83
2023/10/29 12:56:16;;;;;;;3.95;2.25;;;;;;;;;;5054339;28;20400;-83
2023/10/29 12:58:42;;;;;;;2.60;2.40;;;;;;;;;;5054794;28;20914;-83
2023/10/29 13:01:08;;;;;;;2.60;2.40;;;;;;;;;;5053964;28;20381;-83
2023/10/29 13:03:34;;;;;;;3.08;2.20;;;;;;;;;;5054243;28;20427;-83
2023/10/29 13:06:00;;;;;;;3.83;2.60;;;;;;;;;;5053716;28;20397;-83
2023/10/29 13:08:26;;;;;;;2.58;2.10;;;;;;;;;;5054442;28;20382;-83
2023/10/29 13:10:52;;;;;;;3.80;2.60;;;;;;;;;;5054623;28;20389;-83
2023/10/29 13:13:19;;;;;;;3.13;2.78;;;;;;;;;;5054588;28;20477;-82
2023/10/29 13:18:11;;;;;;;4.07;2.97;;;;;;;;;;5142109;22;20463;-85
2023/10/29 13:20:38;;;;;;;5.18;2.60;;;;;;;;;;5059302;28;20430;-86
2023/10/29 13:23:04;;;;;;;3.25;2.60;;;;;;;;;;5050751;28;20388;-85
2023/10/29 13:25:30;;;;;;;3.67;2.30;;;;;;;;;;5068013;28;20411;-85
2023/10/29 13:27:56;;;;;;;4.72;2.80;;;;;;;;;;5051418;28;20861;-87
2023/10/29 13:30:22;;;;;;;3.25;2.70;;;;;;;;;;5050517;28;20758;-85
2023/10/29 13:32:48;;;;;;;3.47;2.60;;;;;;;;;;5050562;28;20855;-87
2023/10/29 13:35:16;;;;;;;3.75;2.88;;;;;;;;;;5050284;28;20473;-86
2023/10/29 13:37:43;;;;;;;3.03;2.42;;;;;;;;;;5050116;28;20412;-87
2023/10/29 13:40:09;;;;;;;3.10;1.90;;;;;;;;;;5043266;28;20383;-86
2023/10/29 13:42:35;;;;;;;3.00;1.80;;;;;;;;;;5029011;28;20873;-86
2023/10/29 13:45:01;;;;;;;3.28;1.67;;;;;;;;;;5048541;28;20416;-86
2023/10/29 13:47:27;;;;;;;2.00;1.50;;;;;;;;;;5043889;28;20755;-86
2023/10/29 13:49:53;;;;;;;2.77;1.60;;;;;;;;;;5050218;28;20401;-86
2023/10/29 13:52:19;;;;;;;3.13;1.98;;;;;;;;;;5053718;28;20381;-86
2023/10/29 13:54:45;;;;;;;2.33;2.13;;;;;;;;;;5051054;28;20397;-88
2023/10/29 13:57:11;;;;;;;3.53;2.47;;;;;;;;;;5040790;28;20472;-88
2023/10/29 13:59:37;;;;;;;3.65;2.35;;;;;;;;;;5034748;28;20393;-88
2023/10/29 14:02:03;;;;;;;2.00;1.50;;;;;;;;;;5035941;28;20994;-88
2023/10/29 14:04:29;;;;;;;3.00;1.70;;;;;;;;;;5053547;28;20427;-88
2023/10/29 14:06:55;;;;;;;1.85;1.50;;;;;;;;;;5053601;28;20392;-88
2023/10/29 14:09:24;;;;;;;3.22;1.50;;;;;;;;;;5053616;28;20867;-88
2023/10/29 14:11:50;;;;;;;2.10;1.23;;;;;;;;;;5053701;28;20457;-88
2023/10/29 14:14:16;;;;;;;3.75;1.38;;;;;;;;;;5033186;28;20449;-88
2023/10/29 14:16:42;;;;;;;4.07;2.65;;;;;;;;;;5035594;28;20883;-87
2023/10/29 14:19:09;;;;;;;4.80;1.55;;;;;;;;;;5035883;28;20737;-87
2023/10/29 14:21:36;;;;;;;1.52;1.10;;;;;;;;;;5053329;28;20878;-88
2023/10/29 14:24:08;;;;;;;2.00;1.30;;;;;;;;;;5053315;28;20438;-88
2023/10/29 14:26:34;;;;;;;2.38;0.90;;;;;;;;;;5039142;28;20385;-88
2023/10/29 14:29:00;;;;;;;1.40;1.25;;;;;;;;;;5026602;28;20388;-87
2023/10/29 14:31:26;;;;;;;1.23;1.05;;;;;;;;;;5048330;28;20599;-88
2023/10/29 14:33:52;;;;;;;2.30;1.30;;;;;;;;;;5053443;28;20438;-88
2023/10/29 14:36:19;;;;;;;2.20;1.48;;;;;;;;;;5035047;28;20777;-87
2023/10/29 14:38:45;;;;;;;1.90;1.52;;;;;;;;;;5035140;28;20405;-87
2023/10/29 14:41:16;;;;;;;3.00;1.90;;;;;;;;;;5052846;28;20408;-86
2023/10/29 14:43:42;;;;;;;2.35;1.83;;;;;;;;;;5056055;28;20401;-84
2023/10/29 14:46:08;;;;;;;2.40;1.75;;;;;;;;;;5046320;28;20402;-84